createdAt,value
2018-09-03T00:00:42.718Z,2.63
2018-09-03T00:03:12.922Z,2.90
2018-09-03T00:05:43.082Z,3.20
2018-09-03T00:08:13.291Z,2.67
2018-09-03T00:10:43.552Z,2.87
2018-09-03T00:13:13.706Z,3.07
2018-09-03T00:15:43.861Z,3.20
2018-09-03T00:18:14.058Z,2.50
2018-09-03T00:20:44.352Z,3.20
2018-09-03T00:23:14.596Z,3.00
2018-09-03T00:25:44.798Z,2.80
2018-09-03T00:28:15.103Z,3.30
2018-09-03T00:30:45.326Z,3.27
2018-09-03T00:33:20.497Z,3.20
2018-09-03T00:37:00.938Z,3.30
2018-09-03T00:39:36.275Z,3.47
2018-09-03T00:42:12.242Z,3.73
2018-09-03T00:44:47.687Z,3.40
2018-09-03T00:47:17.850Z,3.43
2018-09-03T00:49:48.137Z,3.40
2018-09-03T00:52:18.314Z,3.00
2018-09-03T00:54:48.597Z,2.83
2018-09-03T00:57:18.813Z,2.77
2018-09-03T00:59:49.261Z,2.80
2018-09-03T01:02:20.003Z,2.70
2018-09-03T01:04:50.220Z,2.77
2018-09-03T01:07:20.503Z,2.90
2018-09-03T01:09:50.839Z,3.73
2018-09-03T01:12:20.953Z,2.50
2018-09-03T01:14:51.171Z,3.17
2018-09-03T01:17:21.914Z,2.63
2018-09-03T01:19:52.247Z,3.10
2018-09-03T01:22:22.453Z,3.00
2018-09-03T01:24:52.579Z,2.70
2018-09-03T01:27:22.801Z,4.37
2018-09-03T01:29:53.349Z,2.77
2018-09-03T01:32:23.640Z,2.80
2018-09-03T01:34:53.865Z,3.40
2018-09-03T01:37:24.038Z,3.00
2018-09-03T01:39:54.244Z,2.60
2018-09-03T01:42:24.568Z,3.30
2018-09-03T01:44:54.818Z,3.17
2018-09-03T01:47:24.970Z,2.80
2018-09-03T01:49:55.193Z,2.67
2018-09-03T01:52:25.309Z,3.27
2018-09-03T01:54:55.762Z,2.73
2018-09-03T01:57:25.935Z,2.93
2018-09-03T01:59:56.213Z,3.10
2018-09-03T02:02:27.031Z,3.17
2018-09-03T02:04:57.349Z,3.80
2018-09-03T02:07:27.606Z,3.27
2018-09-03T02:09:57.771Z,3.17
2018-09-03T02:12:28.147Z,3.57
2018-09-03T02:14:58.326Z,3.07
2018-09-03T02:17:28.627Z,3.23
2018-09-03T02:19:58.867Z,3.20
2018-09-03T02:22:29.509Z,2.40
2018-09-03T02:24:59.710Z,2.67
2018-09-03T02:27:36.528Z,2.93
2018-09-03T02:30:07.184Z,3.80
2018-09-03T02:32:37.460Z,3.30
2018-09-03T02:35:07.793Z,3.00
2018-09-03T02:37:37.885Z,3.57
2018-09-03T02:40:08.212Z,3.07
2018-09-03T02:42:38.411Z,9.33
2018-09-03T02:45:10.212Z,4.97
2018-09-03T02:47:40.534Z,5.00
2018-09-03T02:50:10.718Z,4.50
2018-09-03T02:52:40.838Z,4.93
2018-09-03T02:55:11.138Z,4.30
2018-09-03T02:57:41.320Z,3.20
2018-09-03T03:00:11.515Z,3.50
2018-09-03T03:02:41.610Z,3.60
2018-09-03T03:05:11.995Z,3.77
2018-09-03T03:07:42.867Z,3.27
2018-09-03T03:10:13.124Z,3.63
2018-09-03T03:12:43.323Z,3.50
2018-09-03T03:15:13.507Z,3.73
2018-09-03T03:17:43.690Z,3.97
2018-09-03T03:20:13.920Z,3.50
2018-09-03T03:22:44.031Z,3.90
2018-09-03T03:25:14.398Z,4.40
2018-09-03T03:27:44.794Z,3.67
2018-09-03T03:30:15.053Z,4.13
2018-09-03T03:32:45.228Z,3.80
2018-09-03T03:35:15.690Z,4.07
2018-09-03T03:37:48.205Z,4.03
2018-09-03T03:40:19.656Z,3.90
2018-09-03T03:42:49.793Z,4.00
2018-09-03T03:45:20.186Z,4.53
2018-09-03T03:47:50.495Z,5.00
2018-09-03T03:50:20.844Z,4.37
2018-09-03T03:52:51.150Z,3.93
2018-09-03T03:55:21.362Z,4.60
2018-09-03T03:57:51.557Z,4.27
2018-09-03T04:00:21.730Z,4.60
2018-09-03T04:02:51.882Z,5.10
2018-09-03T04:05:22.392Z,4.73
2018-09-03T04:07:52.555Z,5.07
2018-09-03T04:10:22.832Z,4.77
2018-09-03T04:12:58.439Z,4.33
2018-09-03T04:15:28.885Z,4.20
2018-09-03T04:17:59.097Z,5.20
2018-09-03T04:20:29.405Z,3.93
2018-09-03T04:22:59.655Z,4.60
2018-09-03T04:25:29.940Z,4.30
2018-09-03T04:28:00.197Z,4.53
2018-09-03T04:30:30.601Z,5.23
2018-09-03T04:33:01.073Z,5.00
2018-09-03T04:35:31.432Z,4.50
2018-09-03T04:38:01.678Z,5.00
2018-09-03T04:40:32.528Z,4.67
2018-09-03T04:43:02.734Z,5.33
2018-09-03T04:45:33.290Z,5.13
2018-09-03T04:48:03.614Z,4.37
2018-09-03T04:50:33.989Z,3.80
2018-09-03T04:53:04.233Z,4.83
2018-09-03T04:55:34.458Z,5.37
2018-09-03T04:58:04.885Z,5.00
2018-09-03T05:00:35.315Z,5.23
2018-09-03T05:03:05.906Z,5.77
2018-09-03T05:05:36.300Z,5.10
2018-09-03T05:08:06.537Z,5.83
2018-09-03T05:10:36.939Z,5.20
2018-09-03T05:13:07.167Z,5.80
2018-09-03T05:15:37.322Z,6.03
2018-09-03T05:18:07.703Z,6.57
2018-09-03T05:20:38.057Z,6.60
2018-09-03T05:23:08.263Z,6.30
2018-09-03T05:25:38.875Z,6.33
2018-09-03T05:28:09.116Z,6.20
2018-09-03T05:30:39.398Z,6.10
2018-09-03T05:33:09.593Z,6.73
2018-09-03T05:35:39.832Z,6.80
2018-09-03T05:38:09.962Z,6.27
2018-09-03T05:40:40.236Z,6.20
2018-09-03T05:43:10.806Z,6.60
2018-09-03T05:45:41.172Z,6.40
2018-09-03T05:48:11.322Z,6.00
2018-09-03T05:50:41.591Z,6.13
2018-09-03T05:53:11.804Z,5.87
2018-09-03T05:55:42.064Z,6.47
2018-09-03T05:58:12.342Z,6.40
2018-09-03T06:00:42.551Z,6.40
2018-09-03T06:03:13.031Z,7.23
2018-09-03T06:05:43.283Z,6.00
2018-09-03T06:08:13.506Z,6.97
2018-09-03T06:10:44.265Z,6.57
2018-09-03T06:13:14.666Z,7.40
2018-09-03T06:15:45.643Z,6.67
2018-09-03T06:18:15.910Z,6.67
2018-09-03T06:20:46.199Z,6.67
2018-09-03T06:23:16.431Z,8.03
2018-09-03T06:25:46.951Z,6.60
2018-09-03T06:28:17.202Z,6.83
2018-09-03T06:30:47.359Z,7.00
2018-09-03T06:33:17.643Z,7.30
2018-09-03T06:35:47.876Z,6.90
2018-09-03T06:38:18.818Z,6.80
2018-09-03T06:40:49.085Z,7.60
2018-09-03T06:43:19.226Z,7.83
2018-09-03T06:45:49.571Z,7.03
2018-09-03T06:48:19.737Z,8.27
2018-09-03T06:50:50.112Z,7.00
2018-09-03T06:53:20.405Z,6.83
2018-09-03T06:55:50.616Z,7.37
2018-09-03T06:58:20.860Z,7.70
2018-09-03T07:00:54.148Z,7.97
2018-09-03T07:03:25.660Z,7.30
2018-09-03T07:05:56.707Z,7.70
2018-09-03T07:08:26.932Z,6.73
2018-09-03T07:10:57.373Z,7.50
2018-09-03T07:13:28.119Z,7.00
2018-09-03T07:15:58.320Z,8.00
2018-09-03T07:18:28.493Z,8.53
2018-09-03T07:20:58.670Z,7.90
2018-09-03T07:23:28.798Z,8.60
2018-09-03T07:25:59.084Z,7.00
2018-09-03T07:28:29.347Z,6.70
2018-09-03T07:30:59.937Z,7.70
2018-09-03T07:33:30.185Z,8.80
2018-09-03T07:36:00.333Z,7.80
2018-09-03T07:38:30.878Z,6.70
2018-09-03T07:41:01.179Z,8.17
2018-09-03T07:43:31.266Z,7.87
2018-09-03T07:46:01.398Z,7.63
2018-09-03T07:48:31.747Z,7.63
2018-09-03T07:51:02.020Z,7.83
2018-09-03T07:53:32.173Z,8.97
2018-09-03T07:56:02.504Z,8.93
2018-09-03T07:58:32.658Z,8.00
2018-09-03T08:01:03.106Z,8.10
2018-09-03T08:03:33.338Z,7.80
2018-09-03T08:06:04.001Z,8.73
2018-09-03T08:08:35.788Z,8.27
2018-09-03T08:11:06.252Z,7.97
2018-09-03T08:13:39.626Z,8.57
2018-09-03T08:16:10.573Z,8.53
2018-09-03T08:18:41.545Z,8.33
2018-09-03T08:21:11.754Z,8.27
2018-09-03T08:23:41.937Z,7.73
2018-09-03T08:26:12.124Z,8.90
2018-09-03T08:28:42.508Z,8.17
2018-09-03T08:31:12.763Z,10.20
2018-09-03T08:33:42.870Z,9.20
2018-09-03T08:36:13.076Z,8.00
2018-09-03T08:38:43.302Z,9.00
2018-09-03T08:41:13.450Z,7.90
2018-09-03T08:43:44.433Z,7.57
2018-09-03T08:46:14.816Z,9.23
2018-09-03T08:48:45.071Z,7.23
2018-09-03T08:51:15.281Z,8.70
2018-09-03T08:53:45.626Z,7.60
2018-09-03T08:56:15.981Z,7.87
2018-09-03T08:58:46.351Z,7.40
2018-09-03T09:01:16.716Z,8.47
2018-09-03T09:03:46.894Z,7.83
2018-09-03T09:06:17.501Z,9.80
2018-09-03T09:08:47.808Z,9.07
2018-09-03T09:11:18.087Z,8.60
2018-09-03T09:13:48.623Z,9.27
2018-09-03T09:16:19.684Z,9.10
2018-09-03T09:18:50.019Z,12.80
2018-09-03T09:21:20.923Z,7.83
2018-09-03T09:23:51.680Z,8.20
2018-09-03T09:26:22.327Z,7.97
2018-09-03T09:28:52.667Z,7.37
2018-09-03T09:31:23.735Z,8.40
2018-09-03T09:33:53.952Z,7.33
2018-09-03T09:36:24.199Z,8.50
2018-09-03T09:38:59.500Z,7.23
2018-09-03T09:41:34.871Z,8.13
2018-09-03T09:44:05.733Z,7.70
2018-09-03T09:46:35.957Z,8.53
2018-09-03T09:49:06.209Z,8.17
2018-09-03T09:51:36.608Z,7.80
2018-09-03T09:54:06.847Z,7.37
2018-09-03T09:56:37.112Z,7.03
2018-09-03T09:59:07.806Z,8.60
2018-09-03T10:01:39.377Z,7.90
2018-09-03T10:04:09.703Z,8.37
2018-09-03T10:06:39.985Z,7.30
2018-09-03T10:09:10.371Z,7.10
2018-09-03T10:11:41.552Z,7.40
2018-09-03T10:14:11.726Z,7.83
2018-09-03T10:16:41.945Z,7.20
2018-09-03T10:19:12.278Z,6.50
2018-09-03T10:21:42.519Z,7.10
2018-09-03T10:24:12.700Z,7.37
2018-09-03T10:26:43.420Z,6.80
2018-09-03T10:29:14.572Z,7.13
2018-09-03T10:31:44.865Z,7.37
2018-09-03T10:34:15.188Z,7.13
2018-09-03T10:36:45.396Z,8.53
2018-09-03T10:39:15.590Z,8.60
2018-09-03T10:41:46.169Z,7.87
2018-09-03T10:44:16.507Z,7.20
2018-09-03T10:46:48.293Z,7.20
2018-09-03T10:49:19.078Z,7.40
2018-09-03T10:51:49.277Z,8.67
2018-09-03T10:54:19.899Z,8.10
2018-09-03T10:56:50.179Z,7.50
2018-09-03T10:59:20.470Z,7.40
2018-09-03T11:01:50.663Z,8.00
2018-09-03T11:04:20.894Z,7.80
2018-09-03T11:06:51.149Z,8.30
2018-09-03T11:09:21.306Z,8.60
2018-09-03T11:11:51.574Z,8.83
2018-09-03T11:14:22.074Z,8.63
2018-09-03T11:16:52.399Z,8.27
2018-09-03T11:19:25.106Z,8.73
2018-09-03T11:21:55.517Z,7.90
2018-09-03T11:24:26.951Z,8.80
2018-09-03T11:26:57.318Z,9.33
2018-09-03T11:29:28.403Z,10.40
2018-09-03T11:31:59.070Z,9.20
2018-09-03T11:34:29.922Z,12.47
2018-09-03T11:37:00.569Z,7.80
2018-09-03T11:39:31.195Z,8.67
2018-09-03T11:42:01.758Z,7.73
2018-09-03T11:44:32.259Z,8.13
2018-09-03T11:47:02.745Z,9.07
2018-09-03T11:49:33.478Z,9.63
2018-09-03T11:52:03.905Z,8.80
2018-09-03T11:54:34.086Z,9.03
2018-09-03T11:57:04.230Z,8.37
2018-09-03T11:59:35.653Z,8.87
2018-09-03T12:02:07.507Z,9.27
2018-09-03T12:04:37.875Z,9.80
2018-09-03T12:07:08.525Z,9.20
2018-09-03T12:09:39.250Z,11.43
2018-09-03T12:12:09.457Z,9.13
2018-09-03T12:14:42.186Z,9.47
2018-09-03T12:17:12.473Z,8.17
2018-09-03T12:19:43.145Z,10.00
2018-09-03T12:22:13.516Z,8.93
2018-09-03T12:24:43.587Z,9.93
2018-09-03T12:27:13.761Z,9.83
2018-09-03T12:29:44.074Z,10.40
2018-09-03T12:32:14.374Z,10.07
2018-09-03T12:34:44.523Z,9.90
2018-09-03T12:37:14.650Z,11.37
2018-09-03T12:39:45.018Z,10.30
2018-09-03T12:42:15.199Z,10.17
2018-09-03T12:44:45.358Z,11.80
2018-09-03T12:47:15.563Z,11.83
2018-09-03T12:49:45.984Z,12.13
2018-09-03T12:52:16.370Z,10.30
2018-09-03T12:54:46.549Z,10.83
2018-09-03T12:57:16.683Z,12.27
2018-09-03T12:59:46.843Z,12.27
2018-09-03T13:02:17.339Z,12.67
2018-09-03T13:04:47.470Z,14.83
2018-09-03T13:07:17.698Z,19.10
2018-09-03T13:09:47.889Z,16.87
2018-09-03T13:12:18.233Z,17.50
2018-09-03T13:14:48.365Z,18.43
2018-09-03T13:17:20.109Z,18.03
2018-09-03T13:19:50.785Z,14.63
2018-09-03T13:22:21.021Z,14.63
2018-09-03T13:24:51.223Z,15.70
2018-09-03T13:27:24.352Z,14.57
2018-09-03T13:29:54.542Z,14.97
2018-09-03T13:32:24.813Z,15.53
2018-09-03T13:34:55.001Z,17.63
2018-09-03T13:37:25.317Z,16.07
2018-09-03T13:39:55.515Z,18.27
2018-09-03T13:42:25.797Z,18.33
2018-09-03T13:44:55.938Z,17.63
2018-09-03T13:47:27.201Z,18.37
2018-09-03T13:49:57.747Z,16.73
2018-09-03T13:52:28.573Z,15.47
2018-09-03T13:54:59.113Z,15.80
2018-09-03T13:57:29.342Z,17.10
2018-09-03T13:59:59.467Z,18.73
2018-09-03T14:02:29.693Z,19.87
2018-09-03T14:04:59.893Z,19.20
2018-09-03T14:07:30.029Z,19.23
2018-09-03T14:10:00.302Z,18.83
2018-09-03T14:12:30.492Z,18.20
2018-09-03T14:15:01.123Z,18.53
2018-09-03T14:17:31.900Z,16.70
2018-09-03T14:20:02.141Z,19.63
2018-09-03T14:22:32.333Z,18.37
2018-09-03T14:25:02.645Z,18.57
2018-09-03T14:27:33.007Z,16.07
2018-09-03T14:30:03.213Z,17.10
2018-09-03T14:32:33.901Z,18.00
2018-09-03T14:35:04.114Z,16.23
2018-09-03T14:37:34.455Z,20.03
2018-09-03T14:40:05.109Z,18.53
2018-09-03T14:42:35.842Z,18.20
2018-09-03T14:45:06.734Z,21.50
2018-09-03T14:47:37.048Z,19.93
2018-09-03T14:50:07.769Z,18.80
2018-09-03T14:52:38.097Z,20.13
2018-09-03T14:55:08.687Z,20.70
2018-09-03T14:57:38.893Z,19.50
2018-09-03T15:00:10.921Z,22.00
2018-09-03T15:02:41.348Z,19.60
2018-09-03T15:05:11.527Z,22.00
2018-09-03T15:07:42.002Z,20.13
2018-09-03T15:10:12.539Z,22.87
2018-09-03T15:12:42.920Z,20.50
2018-09-03T15:15:13.097Z,20.80
2018-09-03T15:17:43.676Z,21.43
2018-09-03T15:20:14.125Z,22.33
2018-09-03T15:22:44.587Z,21.43
2018-09-03T15:25:14.838Z,22.13
2018-09-03T15:27:45.246Z,21.17
2018-09-03T15:30:16.303Z,20.50
2018-09-03T15:32:46.689Z,20.57
2018-09-03T15:35:17.770Z,20.83
2018-09-03T15:37:48.126Z,21.77
2018-09-03T15:40:19.812Z,19.60
2018-09-03T15:42:54.551Z,18.67
2018-09-03T15:45:33.785Z,18.07
2018-09-03T15:48:05.618Z,20.50
2018-09-03T15:50:43.595Z,20.40
2018-09-03T15:53:16.300Z,18.70
2018-09-03T15:55:55.139Z,24.50
2018-09-03T15:58:27.991Z,21.30
2018-09-03T16:01:00.030Z,22.30
2018-09-03T16:03:31.191Z,24.07
2018-09-03T16:06:02.872Z,23.17
2018-09-03T16:08:34.416Z,24.00
2018-09-03T16:11:07.438Z,22.00
2018-09-03T16:13:45.673Z,23.60
2018-09-03T16:16:16.766Z,24.50
2018-09-03T16:18:48.598Z,23.63
2018-09-03T16:21:20.017Z,25.40
2018-09-03T16:23:50.465Z,23.57
2018-09-03T16:26:20.648Z,24.73
2018-09-03T16:28:50.962Z,22.03
2018-09-03T16:31:25.397Z,22.67
2018-09-03T16:33:56.022Z,21.63
2018-09-03T16:36:26.207Z,25.57
2018-09-03T16:38:56.644Z,22.67
2018-09-03T16:41:31.170Z,26.97
2018-09-03T16:44:09.308Z,23.13
2018-09-03T16:46:46.196Z,24.63
2018-09-03T16:49:16.722Z,25.00
2018-09-03T16:51:47.247Z,26.30
2018-09-03T16:54:17.525Z,26.70
2018-09-03T16:56:47.839Z,21.87
2018-09-03T16:59:18.370Z,22.10
2018-09-03T17:01:48.790Z,23.97
2018-09-03T17:04:19.142Z,23.67
2018-09-03T17:06:49.693Z,25.70
2018-09-03T17:09:19.872Z,22.40
2018-09-03T17:11:50.061Z,22.30
2018-09-03T17:14:21.126Z,21.97
2018-09-03T17:16:51.321Z,23.27
2018-09-03T17:19:21.468Z,24.60
2018-09-03T17:21:51.622Z,26.57
2018-09-03T17:24:21.762Z,27.27
2018-09-03T17:26:52.140Z,27.03
2018-09-03T17:29:22.519Z,22.20
2018-09-03T17:31:52.936Z,21.90
2018-09-03T17:34:23.386Z,23.63
2018-09-03T17:36:55.495Z,23.40
2018-09-03T17:39:25.768Z,26.67
2018-09-03T17:41:55.864Z,23.40
2018-09-03T17:44:25.987Z,23.30
2018-09-03T17:46:56.195Z,23.33
2018-09-03T17:49:27.106Z,22.50
2018-09-03T17:51:57.288Z,23.70
2018-09-03T17:54:27.438Z,23.47
2018-09-03T17:56:57.749Z,23.00
2018-09-03T17:59:28.049Z,22.17
2018-09-03T18:01:58.188Z,19.53
2018-09-03T18:04:32.017Z,22.03
2018-09-03T18:07:03.374Z,20.00
2018-09-03T18:09:34.713Z,21.00
2018-09-03T18:12:05.231Z,21.63
2018-09-03T18:14:35.432Z,22.03
2018-09-03T18:17:05.850Z,21.37
2018-09-03T18:19:36.007Z,22.87
2018-09-03T18:22:06.184Z,24.10
2018-09-03T18:24:36.289Z,20.80
2018-09-03T18:27:06.497Z,18.67
2018-09-03T18:29:36.806Z,20.13
2018-09-03T18:32:07.342Z,23.20
2018-09-03T18:34:37.498Z,23.40
2018-09-03T18:37:07.781Z,21.70
2018-09-03T18:39:38.188Z,22.40
2018-09-03T18:42:08.337Z,21.80
2018-09-03T18:44:38.575Z,22.47
2018-09-03T18:47:08.724Z,23.40
2018-09-03T18:49:39.005Z,21.97
2018-09-03T18:52:09.683Z,20.30
2018-09-03T18:54:39.845Z,21.67
2018-09-03T18:57:10.029Z,21.37
2018-09-03T18:59:40.267Z,21.20
2018-09-03T19:02:10.408Z,21.73
2018-09-03T19:04:40.733Z,21.10
2018-09-03T19:07:10.881Z,21.43
2018-09-03T19:09:41.041Z,20.30
2018-09-03T19:12:11.246Z,21.17
2018-09-03T19:14:41.423Z,21.77
2018-09-03T19:17:11.610Z,22.60
2018-09-03T19:19:41.987Z,21.20
2018-09-03T19:22:12.198Z,23.37
2018-09-03T19:24:42.519Z,21.40
2018-09-03T19:27:12.793Z,21.97
2018-09-03T19:29:43.137Z,20.20
2018-09-03T19:32:13.306Z,21.23
2018-09-03T19:34:43.538Z,19.10
2018-09-03T19:37:15.120Z,24.80
2018-09-03T19:39:45.306Z,26.63
2018-09-03T19:42:15.416Z,23.57
2018-09-03T19:44:45.535Z,22.40
2018-09-03T19:47:15.761Z,19.93
2018-09-03T19:49:45.897Z,21.43
2018-09-03T19:52:16.075Z,22.07
2018-09-03T19:54:46.298Z,21.77
2018-09-03T19:57:16.552Z,22.20
2018-09-03T19:59:46.847Z,23.10
2018-09-03T20:02:17.022Z,21.60
2018-09-03T20:04:47.542Z,21.73
2018-09-03T20:07:17.720Z,21.80
2018-09-03T20:09:49.347Z,21.83
2018-09-03T20:12:19.545Z,22.00
2018-09-03T20:14:52.412Z,22.60
2018-09-03T20:17:24.112Z,21.77
2018-09-03T20:19:54.803Z,25.37
2018-09-03T20:22:25.036Z,23.70
2018-09-03T20:24:55.626Z,23.93
2018-09-03T20:27:25.933Z,25.20
2018-09-03T20:29:56.107Z,23.43
2018-09-03T20:32:26.223Z,24.10
2018-09-03T20:34:56.404Z,25.70
2018-09-03T20:37:26.497Z,26.73
2018-09-03T20:39:56.727Z,27.37
2018-09-03T20:42:26.905Z,26.00
2018-09-03T20:44:57.047Z,29.70
2018-09-03T20:47:27.906Z,27.53
2018-09-03T20:49:58.169Z,26.30
2018-09-03T20:52:28.298Z,32.90
2018-09-03T20:54:58.425Z,29.83
2018-09-03T20:57:28.578Z,31.27
2018-09-03T20:59:58.732Z,30.87
2018-09-03T21:02:28.843Z,32.90
2018-09-03T21:04:59.022Z,27.50
2018-09-03T21:07:29.144Z,29.90
2018-09-03T21:09:59.272Z,29.00
2018-09-03T21:12:29.362Z,33.17
2018-09-03T21:14:59.550Z,30.63
2018-09-03T21:17:29.924Z,33.50
2018-09-03T21:20:00.803Z,34.80
2018-09-03T21:22:30.984Z,30.87
2018-09-03T21:25:02.052Z,32.93
2018-09-03T21:27:32.737Z,34.83
2018-09-03T21:30:04.055Z,33.10
2018-09-03T21:32:34.793Z,33.20
2018-09-03T21:35:06.826Z,30.50
2018-09-03T21:37:37.297Z,33.77
2018-09-03T21:40:08.891Z,35.20
2018-09-03T21:42:39.141Z,36.83
2018-09-03T21:45:09.374Z,33.87
2018-09-03T21:47:39.500Z,37.00
2018-09-03T21:50:09.771Z,35.83
2018-09-03T21:52:39.917Z,36.47
2018-09-03T21:55:10.213Z,36.90
2018-09-03T21:57:40.586Z,34.60
2018-09-03T22:00:11.808Z,37.07
2018-09-03T22:02:42.332Z,35.57
2018-09-03T22:05:13.017Z,38.67
2018-09-03T22:07:44.073Z,36.27
2018-09-03T22:10:15.261Z,36.30
2018-09-03T22:12:46.057Z,31.17
2018-09-03T22:15:16.414Z,36.97
2018-09-03T22:17:46.726Z,33.43
2018-09-03T22:20:17.720Z,34.10
2018-09-03T22:22:48.065Z,36.70
2018-09-03T22:25:18.323Z,37.80
2018-09-03T22:27:49.153Z,34.07
2018-09-03T22:30:19.370Z,35.07
2018-09-03T22:32:49.504Z,34.50
2018-09-03T22:35:20.036Z,36.33
2018-09-03T22:37:50.270Z,37.40
2018-09-03T22:40:20.744Z,34.20
2018-09-03T22:42:51.131Z,37.00
2018-09-03T22:45:21.653Z,39.57
2018-09-03T22:47:55.176Z,42.00
2018-09-03T22:50:25.546Z,37.80
2018-09-03T22:52:56.085Z,42.00
2018-09-03T22:55:26.411Z,40.13
2018-09-03T22:57:56.729Z,41.80
2018-09-03T23:00:26.961Z,39.83
2018-09-03T23:02:57.138Z,39.13
2018-09-03T23:05:27.454Z,38.37
2018-09-03T23:07:57.578Z,41.33
2018-09-03T23:10:27.777Z,38.60
2018-09-03T23:12:59.449Z,42.00
2018-09-03T23:15:29.834Z,41.43
2018-09-03T23:18:00.381Z,38.80
2018-09-03T23:20:31.568Z,41.10
2018-09-03T23:23:02.334Z,38.73
2018-09-03T23:25:33.207Z,36.33
2018-09-03T23:28:05.047Z,36.60
2018-09-03T23:30:35.612Z,39.73
2018-09-03T23:33:06.192Z,39.40
2018-09-03T23:35:36.558Z,45.57
2018-09-03T23:38:07.061Z,40.60
2018-09-03T23:40:37.278Z,43.47
2018-09-03T23:43:07.476Z,40.00
2018-09-03T23:45:37.617Z,38.70
2018-09-03T23:48:07.830Z,40.17
2018-09-03T23:50:38.045Z,37.40
2018-09-03T23:53:08.302Z,36.50
2018-09-03T23:55:38.542Z,41.07
2018-09-03T23:58:08.946Z,40.07
